Morton, Texas
Current Conditions -  °F | °C
As of 8:55 PM on Monday 20 Oct 2014 (Local Time) from KCVN Reporting Station
Broken Clouds Broken Clouds  
Wind Chill: 61°   Ceiling: 5500
Heat Index: 61°   Visibility: 10mi
Dew Point: 50°   Wind: 8mph
Humidity: 68%   Direction: 340°NNW
Pressure: 30.17"   Gusts: NA
Location:  33.73°N, 102.76°W
Report Text: KCVN 210155Z AUTO 34007KT 10SM FEW048 BKN055 BKN070 16/10 A3017 RMK AO1
Loading
Personal Weather Stations






























Interactive Weather Map
Tropical Storm Tracking
New forecast layout! Learn more

10-Day Weather Forecast

Advertisements
Track Severe Weather on mobile